Nearby METAR Reports

 

KBAX - Bad Axe, Michigan, USA
Distance from station: ESE 22mi, 35km
Updated: Sat, 20-Jul-2019 8:35am EDT
Partly cloudy
Partly cloudy
 Wind from W
Wind: W 5 mph , 7 km/h
Temperature: 79°F , 26°C
Dew Point: 66°F , 19°C
Humidity: 65%
Barometer: 29.80 inHg , 1009.1 hPa
Clouds: Partly cloudy
Visibility: 10 miles , 16 km
Cloud details: Partly cloudy 8500 ft
Partly cloudy 9500 ft
2019/07/20 12:35 KBAX 201235Z AUTO 27004KT 10SM SCT085 SCT095 26/19 A2980 RMK AO2 T02560188
KFNT - Flint, Michigan, USA
Distance from station: SSW 68mi, 109km
Updated: Sat, 20-Jul-2019 7:53am EDT
Clear
Clear
 Wind from WNW
Wind: WNW 6 mph , 9 km/h
Temperature: 82°F , 28°C
Heat Index: 83°F , 28°C
Dew Point: 63°F , 17°C
Humidity: 51%
Barometer: 29.79 inHg , 1008.8 hPa
Clouds: Clear
Visibility: 10 miles , 16 km
2019/07/20 11:53 KFNT 201153Z 30005KT 10SM CLR 28/17 A2979 RMK AO2 SLP080 60000 70069 T02830167 10289 20244 58031
KMBS - Saginaw, Michigan, USA
Distance from station: SW 44mi, 70km
Updated: Sat, 20-Jul-2019 7:53am EDT
Clear
Clear
 Wind from SW
Wind: SW 5 mph , 7 km/h
Temperature: 77°F , 25°C
Dew Point: 68°F , 20°C
Humidity: 74%
Barometer: 29.78 inHg , 1008.5 hPa
Clouds: Clear
Visibility: 10 miles , 16 km
2019/07/20 11:53 KMBS 201153Z 23004KT 10SM CLR 25/20 A2978 RMK AO2 SLP079 60005 70006 T02500200 10272 20228 56023 $
 
KDTW - Detroit/Wayne, Michigan, USA
Distance from station: SSE 117mi, 188km
Updated: Sat, 20-Jul-2019 7:53am EDT
Overcast
Overcast
 Wind from S
Wind: S 12 mph , 19 km/h
Temperature: 75°F , 24°C
Dew Point: 64°F , 18°C
Humidity: 69%
Barometer: 29.80 inHg , 1009.1 hPa
Clouds: Overcast
Visibility: 10 miles , 16 km
Cloud details: Few Clouds 7000 ft
Partly cloudy 16000 ft
Overcast 24000 ft
2019/07/20 11:53 KDTW 201153Z 18010KT 10SM FEW070 SCT160 OVC240 24/18 A2980 RMK AO2 SLP089 VIRGA N 70161 T02390183 10267 20239 58033 $
KP58 - Port Hope, Michigan, USA
Distance from station: ENE 30mi, 48km
Updated: Sat, 20-Jul-2019 7:51am EDT

 Wind from W
Wind: W 5 mph , 7 km/h
Temperature: 79°F , 26°C
Dew Point: 66°F , 19°C
Humidity: 65%
Barometer: 29.77 inHg , 1008.1 hPa
2019/07/20 11:51 KP58 201151Z AUTO 28004KT 26/19 A2977 RMK AO1 SLP068 70054 T02610194 10267 20244 56000
KCFS - Caro/Tuscola, Michigan, USA
Distance from station: S 31mi, 50km
Updated: Sat, 20-Jul-2019 8:37am EDT
Clear
Clear
 Wind from W
Wind: W 3 mph , 6 km/h
Temperature: 82°F , 28°C
Heat Index: 84°F , 29°C
Dew Point: 64°F , 18°C
Humidity: 55%
Barometer: 29.80 inHg , 1009.1 hPa
Clouds: Clear
Visibility: 10 miles , 16 km
2019/07/20 12:37 KCFS 201237Z AUTO 26003KT 10SM CLR 28/18 A2980 RMK AO2 T02840179
 
KPHN - Port Huron, Michigan, USA
Distance from station: SSE 81mi, 131km
Updated: Sat, 20-Jul-2019 8:37am EDT
Clear
Clear
 Wind from SSE
Wind: SSE 6 mph , 9 km/h
Temperature: 79°F , 26°C
Dew Point: 70°F , 21°C
Humidity: 74%
Barometer: 29.81 inHg , 1009.5 hPa
Clouds: Clear
Visibility: 10 miles , 16 km
2019/07/20 12:37 KPHN 201237Z AUTO 16005KT 10SM CLR 26/21 A2981 RMK AO2
KPTK - Pontiac, Michigan, USA
Distance from station: S 86mi, 138km
Updated: Sat, 20-Jul-2019 7:53am EDT
Overcast
Overcast
 Wind from calm
Wind: Calm
Temperature: 79°F , 26°C
Dew Point: 63°F , 17°C
Humidity: 58%
Barometer: 29.77 inHg , 1008.1 hPa
Clouds: Overcast
Visibility: 10 miles , 16 km
Cloud details: Few Clouds 3700 ft
Mostly cloudy 15000 ft
Overcast 25000 ft
2019/07/20 11:53 KPTK 201153Z 00000KT 10SM FEW037 BKN150 OVC250 26/17 A2977 RMK AO2 SLP074 70033 T02610167 10267 20233 58039 $
KMTC - Selfridge Angb, Michigan, USA
Distance from station: SSE 94mi, 151km
Updated: Sat, 20-Jul-2019 7:56am EDT
Overcast
Overcast
 Wind from S
Wind: S 9 mph , 15 km/h
Temperature: 81°F , 27°C
Heat Index: 83°F , 28°C
Dew Point: 66°F , 19°C
Humidity: 62%
Barometer: 29.81 inHg , 1009.5 hPa
Clouds: Overcast
Visibility: 10 miles , 16 km
Cloud details: Mostly cloudy 17000 ft
Mostly cloudy 19000 ft
Overcast 22000 ft
2019/07/20 11:56 KMTC 201156Z 19008KT 10SM BKN170 BKN190 OVC220 27/19 A2981 RMK AO2A SLPNO ALSTG/SLPNO ESTMD $